Time;durP1;ratioP1;P1;durP2;ratioP2;P2;SDS_P1;SDS_P2;PMS_P1;PMS_P2;Temp;Humidity;BMP_temperature;BMP_pressure;BME280_temperature;BME280_humidity;BME280_pressure;Samples;Min_cycle;Max_cycle;Signal;HPM_P1;HPM_P2
2023/09/18 00:01:09;;;;;;;0.63;0.25;;;;;;;;;;5085962;28;20020;-65
2023/09/18 00:03:35;;;;;;;0.63;0.63;;;;;;;;;;5087455;28;20097;-68
2023/09/18 00:06:01;;;;;;;0.10;0.10;;;;;;;;;;5087387;28;20496;-66
2023/09/18 00:08:27;;;;;;;0.68;0.68;;;;;;;;;;5087387;28;20025;-65
2023/09/18 00:10:53;;;;;;;0.57;0.47;;;;;;;;;;5087300;28;20088;-66
2023/09/18 00:13:20;;;;;;;0.95;0.38;;;;;;;;;;5074362;28;20051;-67
2023/09/18 00:15:46;;;;;;;0.05;0.03;;;;;;;;;;5056902;28;20017;-67
2023/09/18 00:18:14;;;;;;;0.40;0.40;;;;;;;;;;5053832;28;20053;-78
2023/09/18 00:20:41;;;;;;;1.70;0.70;;;;;;;;;;5052596;28;20029;-74
2023/09/18 00:23:07;;;;;;;;;;;;;;;;;;5053838;28;20143;-73
2023/09/18 00:25:33;;;;;;;;;;;;;;;;;;5053880;28;20450;-76
2023/09/18 00:27:59;;;;;;;;;;;;;;;;;;5054268;28;20430;-76
2023/09/18 00:30:25;;;;;;;;;;;;;;;;;;5053520;28;20001;-77
2023/09/18 00:32:51;;;;;;;;;;;;;;;;;;5054115;28;20012;-75
2023/09/18 00:35:17;;;;;;;;;;;;;;;;;;5053458;28;19986;-76
2023/09/18 00:37:43;;;;;;;;;;;;;;;;;;5054163;28;19985;-73
2023/09/18 00:40:10;;;;;;;;;;;;;;;;;;5054199;28;20342;-74
2023/09/18 00:42:36;;;;;;;;;;;;;;;;;;5054025;28;20017;-75
2023/09/18 00:45:02;;;;;;;;;;;;;;;;;;5052887;28;20068;-74
2023/09/18 00:47:28;;;;;;;;;;;;;;;;;;5052186;28;20025;-72
2023/09/18 00:49:55;;;;;;;;;;;;;;;;;;5053831;28;20064;-72
2023/09/18 00:52:20;;;;;;;;;;;;;;;;;;5052394;28;20072;-72
2023/09/18 00:54:46;;;;;;;;;;;;;;;;;;5053559;28;20063;-71
2023/09/18 00:57:12;;;;;;;;;;;;;;;;;;5053553;28;20021;-76
2023/09/18 00:59:38;;;;;;;;;;;;;;;;;;5053429;28;20017;-78
2023/09/18 01:02:04;;;;;;;;;;;;;;;;;;5053476;28;20473;-80
2023/09/18 01:04:32;;;;;;;;;;;;;;;;;;5063704;28;20039;-85
2023/09/18 01:06:58;;;;;;;;;;;;;;;;;;5073472;28;20417;-86
2023/09/18 01:09:25;;;;;;;;;;;;;;;;;;5073240;28;20346;-85
2023/09/18 01:11:50;;;;;;;;;;;;;;;;;;5073331;28;20051;-81
2023/09/18 01:14:16;;;;;;;;;;;;;;;;;;5073469;28;20392;-77
2023/09/18 01:16:43;;;;;;;;;;;;;;;;;;5073088;28;19988;-74
2023/09/18 01:19:09;;;;;;;;;;;;;;;;;;5065434;28;20115;-70
2023/09/18 01:21:35;;;;;;;;;;;;;;;;;;5052644;28;20142;-69
2023/09/18 01:24:01;;;;;;;;;;;;;;;;;;5052895;28;20017;-70
2023/09/18 01:26:27;;;;;;;;;;;;;;;;;;5052083;28;19977;-69
2023/09/18 01:28:54;;;;;;;;;;;;;;;;;;5052988;28;19996;-69
2023/09/18 01:31:20;;;;;;;;;;;;;;;;;;5051503;28;20461;-66
2023/09/18 01:33:47;;;;;;;;;;;;;;;;;;5052629;28;19981;-67
2023/09/18 01:36:13;;;;;;;;;;;;;;;;;;5052196;28;19993;-68
2023/09/18 01:38:39;;;;;;;;;;;;;;;;;;5052561;28;20039;-67
2023/09/18 01:41:05;;;;;;;;;;;;;;;;;;5052587;28;19984;-67
2023/09/18 01:43:31;;;;;;;;;;;;;;;;;;5052336;28;20012;-66
2023/09/18 01:45:57;;;;;;;;;;;;;;;;;;5052499;28;20013;-65
2023/09/18 01:48:23;;;;;;;;;;;;;;;;;;5052193;28;20021;-65
2023/09/18 01:50:49;;;;;;;;;;;;;;;;;;5052450;28;19978;-65
2023/09/18 01:53:15;;;;;;;;;;;;;;;;;;5051546;28;20013;-63
2023/09/18 01:55:41;;;;;;;;;;;;;;;;;;5052038;28;20203;-64
2023/09/18 01:58:09;;;;;;;;;;;;;;;;;;5052222;28;19982;-64
2023/09/18 02:00:35;;;;;;;;;;;;;;;;;;5052121;28;19981;-63
2023/09/18 02:03:01;;;;;;;;;;;;;;;;;;5051966;28;20096;-64
2023/09/18 02:05:27;;;;;;;;;;;;;;;;;;5051971;28;20526;-64
2023/09/18 02:07:53;;;;;;;;;;;;;;;;;;5051957;28;20396;-65
2023/09/18 02:10:19;;;;;;;;;;;;;;;;;;5056641;28;19981;-64
2023/09/18 02:12:45;;;;;;;;;;;;;;;;;;5071822;28;20016;-64
2023/09/18 02:15:11;;;;;;;;;;;;;;;;;;5071794;28;20050;-63
2023/09/18 02:17:37;;;;;;;;;;;;;;;;;;5071752;28;20063;-65
2023/09/18 02:20:05;;;;;;;;;;;;;;;;;;5071494;28;20001;-64
2023/09/18 02:22:31;;;;;;;;;;;;;;;;;;5072004;28;19989;-63
2023/09/18 02:24:58;;;;;;;;;;;;;;;;;;5071714;28;20101;-64
2023/09/18 02:27:24;;;;;;;;;;;;;;;;;;5062601;28;20077;-65
2023/09/18 02:29:53;;;;;;;;;;;;;;;;;;5051552;28;20578;-64
2023/09/18 02:32:19;;;;;;;;;;;;;;;;;;5050385;28;19989;-64
2023/09/18 02:34:45;;;;;;;;;;;;;;;;;;5051672;28;20031;-65
2023/09/18 02:37:11;;;;;;;;;;;;;;;;;;5051511;28;19993;-63
2023/09/18 02:39:37;;;;;;;;;;;;;;;;;;5051411;28;20021;-64
2023/09/18 02:42:03;;;;;;;;;;;;;;;;;;5050861;28;20009;-63
2023/09/18 02:44:29;;;;;;;;;;;;;;;;;;5050827;28;20508;-63
2023/09/18 02:46:55;;;;;;;;;;;;;;;;;;5051337;28;20024;-64
2023/09/18 02:49:21;;;;;;;;;;;;;;;;;;5051440;28;19992;-65
2023/09/18 02:51:47;;;;;;;;;;;;;;;;;;5051650;28;19986;-64
2023/09/18 02:54:13;;;;;;;;;;;;;;;;;;5050954;28;20013;-65
2023/09/18 02:56:39;;;;;;;;;;;;;;;;;;5051377;28;20559;-65
2023/09/18 02:59:05;;;;;;;;;;;;;;;;;;5050896;28;20015;-63
2023/09/18 03:01:31;;;;;;;;;;;;;;;;;;5051329;28;20040;-65
2023/09/18 03:03:57;;;;;;;;;;;;;;;;;;5050746;28;20021;-66
2023/09/18 03:06:23;;;;;;;;;;;;;;;;;;5050992;28;20067;-65
2023/09/18 03:08:49;;;;;;;;;;;;;;;;;;5051456;28;20008;-64
2023/09/18 03:11:16;;;;;;;;;;;;;;;;;;5051190;28;20369;-64
2023/09/18 03:13:42;;;;;;;;;;;;;;;;;;5051087;28;20020;-64
2023/09/18 03:16:08;;;;;;;;;;;;;;;;;;5050462;28;19986;-63
2023/09/18 03:18:34;;;;;;;;;;;;;;;;;;5050998;28;20020;-64
2023/09/18 03:21:00;;;;;;;;;;;;;;;;;;5051160;28;20025;-64
2023/09/18 03:23:26;;;;;;;;;;;;;;;;;;5051014;28;20025;-63
2023/09/18 03:25:52;;;;;;;;;;;;;;;;;;5057579;28;20013;-62
2023/09/18 03:28:18;;;;;;;;;;;;;;;;;;5069313;28;20345;-62
2023/09/18 03:30:44;;;;;;;;;;;;;;;;;;5071133;28;19982;-60
2023/09/18 03:33:10;;;;;;;;;;;;;;;;;;5067884;28;20009;-60
2023/09/18 03:35:36;;;;;;;;;;;;;;;;;;5070889;28;20018;-61
2023/09/18 03:38:03;;;;;;;;;;;;;;;;;;5070710;28;19981;-61
2023/09/18 03:40:29;;;;;;;;;;;;;;;;;;5070662;28;19988;-61
2023/09/18 03:42:55;;;;;;;;;;;;;;;;;;5070814;28;20072;-61
2023/09/18 03:45:21;;;;;;;;;;;;;;;;;;5070652;28;19986;-61
2023/09/18 03:47:49;;;;;;;;;;;;;;;;;;5070764;28;19988;-61
2023/09/18 03:50:15;;;;;;;;;;;;;;;;;;5051506;28;20039;-61
2023/09/18 03:52:41;;;;;;;;;;;;;;;;;;5054674;28;19990;-61
2023/09/18 03:55:07;;;;;;;;;;;;;;;;;;5054522;28;19984;-62
2023/09/18 03:57:33;;;;;;;;;;;;;;;;;;5054479;28;20069;-62
2023/09/18 03:59:59;;;;;;;;;;;;;;;;;;5054404;28;20073;-62
2023/09/18 04:02:25;;;;;;;;;;;;;;;;;;5054293;28;20007;-61
2023/09/18 04:04:51;;;;;;;;;;;;;;;;;;5067849;28;20020;-61
2023/09/18 04:07:19;;;;;;;;;;;;;;;;;;5074356;28;20031;-62
2023/09/18 04:09:45;;;;;;;;;;;;;;;;;;5074317;28;20043;-62
2023/09/18 04:12:11;;;;;;;;;;;;;;;;;;5074344;28;19985;-61
2023/09/18 04:14:37;;;;;;;;;;;;;;;;;;5073721;28;20031;-61
2023/09/18 04:17:03;;;;;;;;;;;;;;;;;;5074255;28;20117;-62
2023/09/18 04:19:29;;;;;;;;;;;;;;;;;;5074405;28;20150;-62
2023/09/18 04:21:55;;;;;;;;;;;;;;;;;;5072840;28;20008;-62
2023/09/18 04:24:21;;;;;;;;;;;;;;;;;;5073904;28;20445;-62
2023/09/18 04:26:47;;;;;;;;;;;;;;;;;;5073702;28;20085;-62
2023/09/18 04:29:13;;;;;;;;;;;;;;;;;;5073883;28;19982;-61
2023/09/18 04:31:39;;;;;;;;;;;;;;;;;;5073882;28;19992;-63
2023/09/18 04:34:05;;;;;;;;;;;;;;;;;;5074036;28;20016;-61
2023/09/18 04:36:31;;;;;;;;;;;;;;;;;;5073477;28;20028;-63
2023/09/18 04:38:57;;;;;;;;;;;;;;;;;;5069241;28;19989;-62
2023/09/18 04:41:23;;;;;;;;;;;;;;;;;;5053664;28;19982;-61
2023/09/18 04:43:50;;;;;;;;;;;;;;;;;;5053412;28;20035;-61
2023/09/18 04:46:16;;;;;;;;;;;;;;;;;;5053466;28;20076;-60
2023/09/18 04:48:42;;;;;;;;;;;;;;;;;;5053434;28;20004;-61
2023/09/18 04:51:08;;;;;;;;;;;;;;;;;;5053587;28;20350;-62
2023/09/18 04:53:34;;;;;;;;;;;;;;;;;;5053336;28;20001;-65
2023/09/18 04:56:00;;;;;;;;;;;;;;;;;;5052778;28;19985;-61
2023/09/18 04:58:26;;;;;;;;;;;;;;;;;;5053111;28;20513;-62
2023/09/18 05:00:52;;;;;;;;;;;;;;;;;;5052945;28;20073;-61
2023/09/18 05:03:18;;;;;;;;;;;;;;;;;;5051631;28;20083;-61
2023/09/18 05:05:44;;;;;;;;;;;;;;;;;;5053286;28;20045;-61
2023/09/18 05:08:10;;;;;;;;;;;;;;;;;;5053344;28;19981;-63
2023/09/18 05:10:36;;;;;;;;;;;;;;;;;;5052089;28;20343;-61
2023/09/18 05:13:02;;;;;;;;;;;;;;;;;;5052927;28;19988;-62
2023/09/18 05:15:32;;;;;;;;;;;;;;;;;;5052845;28;19982;-62
2023/09/18 05:17:58;;;;;;;;;;;;;;;;;;5052803;28;20442;-65
2023/09/18 05:20:24;;;;;;;;;;;;;;;;;;5052807;28;20379;-62
2023/09/18 05:22:50;;;;;;;;;;;;;;;;;;5052634;28;19981;-61
2023/09/18 05:25:16;;;;;;;;;;;;;;;;;;5052851;28;20000;-61
2023/09/18 05:27:45;;;;;;;;;;;;;;;;;;5052050;28;19989;-61
2023/09/18 05:30:12;;;;;;;;;;;;;;;;;;5052757;28;19981;-61
2023/09/18 05:32:38;;;;;;;;;;;;;;;;;;5052479;28;19981;-61
2023/09/18 05:35:06;;;;;;;;;;;;;;;;;;5052474;28;20108;-61
2023/09/18 05:37:32;;;;;;;;;;;;;;;;;;5052636;28;20392;-61
2023/09/18 05:39:58;;;;;;;;;;;;;;;;;;5052393;28;20430;-61
2023/09/18 05:42:24;;;;;;;;;;;;;;;;;;5052594;28;20106;-62
2023/09/18 05:44:50;;;;;;;;;;;;;;;;;;5058966;28;20103;-61
2023/09/18 05:47:16;;;;;;;;;;;;;;;;;;5072365;28;19977;-61
2023/09/18 05:49:42;;;;;;;;;;;;;;;;;;5072185;28;20118;-64
2023/09/18 05:52:08;;;;;;;;;;;;;;;;;;5071561;28;19977;-61
2023/09/18 05:54:34;;;;;;;;;;;;;;;;;;5070511;28;20152;-60
2023/09/18 05:57:01;;;;;;;;;;;;;;;;;;5071483;28;19981;-60
2023/09/18 05:59:27;;;;;;;;;;;;;;;;;;5072041;28;20395;-63
2023/09/18 06:01:53;;;;;;;;;;;;;;;;;;5056176;28;20072;-60
2023/09/18 06:04:20;;;;;;;;;;;;;;;;;;5051760;28;20021;-61
2023/09/18 06:06:46;;;;;;;;;;;;;;;;;;5051986;28;20004;-61
2023/09/18 06:09:13;;;;;;;;;;;;;;;;;;5051787;28;20016;-60
2023/09/18 06:11:39;;;;;;;;;;;;;;;;;;5052354;28;20119;-61
2023/09/18 06:14:05;;;;;;;;;;;;;;;;;;5051266;28;20509;-60
2023/09/18 06:16:31;;;;;;;;;;;;;;;;;;5051507;28;19992;-61
2023/09/18 06:18:57;;;;;;;;;;;;;;;;;;5051853;28;20064;-60
2023/09/18 06:21:22;;;;;;;;;;;;;;;;;;5051583;28;20000;-61
2023/09/18 06:23:48;;;;;;;;;;;;;;;;;;5051805;28;19986;-61
2023/09/18 06:26:14;;;;;;;;;;;;;;;;;;5051946;28;19982;-60
2023/09/18 06:28:40;;;;;;;;;;;;;;;;;;5052050;28;20430;-61
2023/09/18 06:31:06;;;;;;;;;;;;;;;;;;5050219;28;20096;-60
2023/09/18 06:33:32;;;;;;;;;;;;;;;;;;5049711;28;20473;-60
2023/09/18 06:35:59;;;;;;;;;;;;;;;;;;5049851;28;19982;-61
2023/09/18 06:38:25;;;;;;;;;;;;;;;;;;5049893;28;19988;-60
2023/09/18 06:40:52;;;;;;;;;;;;;;;;;;5049843;28;19986;-59
2023/09/18 06:43:18;;;;;;;;;;;;;;;;;;5049649;28;19988;-59
2023/09/18 06:45:44;;;;;;;;;;;;;;;;;;5050459;28;19977;-60
2023/09/18 06:48:10;;;;;;;;;;;;;;;;;;5050592;28;20038;-60
2023/09/18 06:50:36;;;;;;;;;;;;;;;;;;5050963;28;19989;-59
2023/09/18 06:53:02;;;;;;;;;;;;;;;;;;5059398;28;19989;-60
2023/09/18 06:55:28;;;;;;;;;;;;;;;;;;5053218;28;19986;-61
2023/09/18 06:57:54;;;;;;;;;;;;;;;;;;5051535;28;20073;-60
2023/09/18 07:00:20;;;;;;;;;;;;;;;;;;5053080;28;20024;-58
2023/09/18 07:02:46;;;;;;;;;;;;;;;;;;5056721;28;19981;-59
2023/09/18 07:05:12;;;;;;;;;;;;;;;;;;5060759;28;20005;-58
2023/09/18 07:07:38;;;;;;;;;;;;;;;;;;5071258;28;20016;-60
2023/09/18 07:10:04;;;;;;;;;;;;;;;;;;5053116;28;19982;-58
2023/09/18 07:12:31;;;;;;;;;;;;;;;;;;5051174;28;19982;-59
2023/09/18 07:14:57;;;;;;;;;;;;;;;;;;5051384;28;20010;-59
2023/09/18 07:17:23;;;;;;;;;;;;;;;;;;5063966;28;19981;-58
2023/09/18 07:19:49;;;;;;;;;;;;;;;;;;5051934;28;19989;-59
2023/09/18 07:22:15;;;;;;;;;;;;;;;;;;5050790;28;20009;-59
2023/09/18 07:24:42;;;;;;;;;;;;;;;;;;5051448;28;19986;-59
2023/09/18 07:27:08;;;;;;;;;;;;;;;;;;5071154;28;19985;-59
2023/09/18 07:29:34;;;;;;;;;;;;;;;;;;5074819;28;19988;-59
2023/09/18 07:32:01;;;;;;;;;;;;;;;;;;5073855;28;20029;-59
2023/09/18 07:34:27;;;;;;;;;;;;;;;;;;5075108;28;20002;-60
2023/09/18 07:36:55;;;;;;;;;;;;;;;;;;5075440;28;19992;-59
2023/09/18 07:39:21;;;;;;;;;;;;;;;;;;5075178;28;19982;-59
2023/09/18 07:41:50;;;;;;;;;;;;;;;;;;5075014;28;20497;-59
2023/09/18 07:44:16;;;;;;;;;;;;;;;;;;5075151;28;19985;-59
2023/09/18 07:46:42;;;;;;;;;;;;;;;;;;5075153;28;20008;-59
2023/09/18 07:49:08;;;;;;;;;;;;;;;;;;5073555;28;20452;-58
2023/09/18 07:51:34;;;;;;;;;;;;;;;;;;5074816;28;19985;-58
2023/09/18 07:54:00;;;;;;;;;;;;;;;;;;5074570;28;20396;-59
2023/09/18 07:56:27;;;;;;;;;;;;;;;;;;5074876;28;20016;-58
2023/09/18 07:58:53;;;;;;;;;;;;;;;;;;5074395;28;20024;-60
2023/09/18 08:01:22;;;;;;;;;;;;;;;;;;5063405;28;20339;-60
2023/09/18 08:03:48;;;;;;;;;;;;;;;;;;5054663;28;20067;-59
2023/09/18 08:06:15;;;;;;;;;;;;;;;;;;5054493;28;19993;-60
2023/09/18 08:08:41;;;;;;;;;;;;;;;;;;5054589;28;19982;-60
2023/09/18 08:11:10;;;;;;;;;;;;;;;;;;5054163;28;19982;-58
2023/09/18 08:13:36;;;;;;;;;;;;;;;;;;5054315;28;20490;-60
2023/09/18 08:16:03;;;;;;;;;;;;;;;;;;5060133;28;20457;-60
2023/09/18 08:18:29;;;;;;;;;;;;;;;;;;5074103;28;19977;-59
2023/09/18 08:20:57;;;;;;;;;;;;;;;;;;5073950;28;19989;-59
2023/09/18 08:23:23;;;;;;;;;;;;;;;;;;5073971;28;20350;-61
2023/09/18 08:25:51;;;;;;;;;;;;;;;;;;5074146;28;19985;-60
2023/09/18 08:28:17;;;;;;;;;;;;;;;;;;5072834;28;20028;-60
2023/09/18 08:30:47;;;;;;;;;;;;;;;;;;5072687;28;20016;-60
2023/09/18 08:33:13;;;;;;;;;;;;;;;;;;5073789;28;20051;-60
2023/09/18 08:35:39;;;;;;;;;;;;;;;;;;5073312;28;19982;-60
2023/09/18 08:38:05;;;;;;;;;;;;;;;;;;5073962;28;19977;-59
2023/09/18 08:40:31;;;;;;;;;;;;;;;;;;5074065;28;20068;-59
2023/09/18 08:42:59;;;;;;;;;;;;;;;;;;5073772;28;20479;-60
2023/09/18 08:45:25;;;;;;;;;;;;;;;;;;5071864;28;20403;-58
2023/09/18 08:47:51;;;;;;;;;;;;;;;;;;5072480;28;19985;-61
2023/09/18 08:50:17;;;;;;;;;;;;;;;;;;5073263;28;19981;-59
2023/09/18 08:52:43;;;;;;;;;;;;;;;;;;5073771;28;19977;-59
2023/09/18 08:55:09;;;;;;;;;;;;;;;;;;5073451;28;20012;-59
2023/09/18 08:57:35;;;;;;;;;;;;;;;;;;5073450;28;19977;-59
2023/09/18 09:00:06;;;;;;;;;;;;;;;;;;5073581;28;19977;-61
2023/09/18 09:02:32;;;;;;;;;;;;;;;;;;5072113;28;20141;-60
2023/09/18 09:04:58;;;;;;;;;;;;;;;;;;5073218;28;20249;-60
2023/09/18 09:07:24;;;;;;;;;;;;;;;;;;5073149;28;20459;-61
2023/09/18 09:09:50;;;;;;;;;;;;;;;;;;5073377;28;19989;-61
2023/09/18 09:12:16;;;;;;;;;;;;;;;;;;5073149;28;19985;-61
2023/09/18 09:14:42;;;;;;;;;;;;;;;;;;5073132;28;20040;-61
2023/09/18 09:17:10;;;;;;;;;;;;;;;;;;5073127;28;20105;-61
2023/09/18 09:19:38;;;;;;;;;;;;;;;;;;5071334;28;19988;-61
2023/09/18 09:22:04;;;;;;;;;;;;;;;;;;5072904;28;20453;-59
2023/09/18 09:24:30;;;;;;;;;;;;;;;;;;5073073;28;20047;-61
2023/09/18 09:26:56;;;;;;;;;;;;;;;;;;5073106;28;19981;-61
2023/09/18 09:29:22;;;;;;;;;;;;;;;;;;5072633;28;20435;-61
2023/09/18 09:31:50;;;;;;;;;;;;;;;;;;5072787;28;19985;-61
2023/09/18 09:34:16;;;;;;;;;;;;;;;;;;5069091;28;20006;-61
2023/09/18 09:36:42;;;;;;;;;;;;;;;;;;5052953;28;20016;-63
2023/09/18 09:39:08;;;;;;;;;;;;;;;;;;5052652;28;19989;-61
2023/09/18 09:41:36;;;;;;;;;;;;;;;;;;5052802;28;19981;-62
2023/09/18 09:44:02;;;;;;;;;;;;;;;;;;5052920;28;19985;-61
2023/09/18 09:46:28;;;;;;;;;;;;;;;;;;5052824;28;20354;-63
2023/09/18 09:48:54;;;;;;;;;;;;;;;;;;5057426;28;19985;-61
2023/09/18 09:51:21;;;;;;;;;;;;;;;;;;5072250;28;19981;-62
2023/09/18 09:53:48;;;;;;;;;;;;;;;;;;5072367;28;20008;-62
2023/09/18 09:56:13;;;;;;;;;;;;;;;;;;5072298;28;19988;-63
2023/09/18 09:58:43;;;;;;;;;;;;;;;;;;5072136;28;19981;-64
2023/09/18 10:01:10;;;;;;;;;;;;;;;;;;5070946;28;20396;-63
2023/09/18 10:03:36;;;;;;;;;;;;;;;;;;5072017;28;20013;-63
2023/09/18 10:06:02;;;;;;;;;;;;;;;;;;5072075;28;20001;-63
2023/09/18 10:08:30;;;;;;;;;;;;;;;;;;5071788;28;20449;-62
2023/09/18 10:10:56;;;;;;;;;;;;;;;;;;5071885;28;20295;-63
2023/09/18 10:13:22;;;;;;;;;;;;;;;;;;5072298;28;20279;-61
2023/09/18 10:15:48;;;;;;;;;;;;;;;;;;5072118;28;19982;-62
2023/09/18 10:18:17;;;;;;;;;;;;;;;;;;5057124;28;20025;-61
2023/09/18 10:20:43;;;;;;;;;;;;;;;;;;5062974;28;20046;-61
2023/09/18 10:23:09;;;;;;;;;;;;;;;;;;5069260;28;19985;-63
2023/09/18 10:25:35;;;;;;;;;;;;;;;;;;5071792;28;20073;-63
2023/09/18 10:28:02;;;;;;;;;;;;;;;;;;5071931;28;20382;-63
2023/09/18 10:30:29;;;;;;;;;;;;;;;;;;5071781;28;20480;-62
2023/09/18 10:32:56;;;;;;;;;;;;;;;;;;5071902;28;20000;-61
2023/09/18 10:35:22;;;;;;;;;;;;;;;;;;5072099;28;20227;-62
2023/09/18 10:37:48;;;;;;;;;;;;;;;;;;5070520;28;20025;-62
2023/09/18 10:40:14;;;;;;;;;;;;;;;;;;5071723;28;19977;-62
2023/09/18 10:42:40;;;;;;;;;;;;;;;;;;5071642;28;19988;-63
2023/09/18 10:45:05;;;;;;;;;;;;;;;;;;5071911;28;20437;-63
2023/09/18 10:47:31;;;;;;;;;;;;;;;;;;5071788;28;20500;-63
2023/09/18 10:49:57;;;;;;;;;;;;;;;;;;5071653;28;20002;-62
2023/09/18 10:52:23;;;;;;;;;;;;;;;;;;5071448;28;19986;-63
2023/09/18 10:54:49;;;;;;;;;;;;;;;;;;5069767;28;20012;-64
2023/09/18 10:57:15;;;;;;;;;;;;;;;;;;5051707;28;19989;-63
2023/09/18 10:59:41;;;;;;;;;;;;;;;;;;5051270;28;20373;-63
2023/09/18 11:02:07;;;;;;;;;;;;;;;;;;5050162;28;20036;-64
2023/09/18 11:04:33;;;;;;;;;;;;;;;;;;5051393;28;20393;-64
2023/09/18 11:06:59;;;;;;;;;;;;;;;;;;5051220;28;19981;-64
2023/09/18 11:09:25;;;;;;;;;;;;;;;;;;5051625;28;19986;-63
2023/09/18 11:11:52;;;;;;;;;;;;;;;;;;5055570;28;19992;-63
2023/09/18 11:14:18;;;;;;;;;;;;;;;;;;5071436;28;20005;-65
2023/09/18 11:16:44;;;;;;;;;;;;;;;;;;5071487;28;19977;-64
2023/09/18 11:19:10;;;;;;;;;;;;;;;;;;5071228;28;20020;-62
2023/09/18 11:21:36;;;;;;;;;;;;;;;;;;5071661;28;19988;-62
2023/09/18 11:24:05;;;;;;;;;;;;;;;;;;5071769;28;19981;-61
2023/09/18 11:26:31;;;;;;;;;;;;;;;;;;5071108;28;20445;-62
2023/09/18 11:28:57;;;;;;;;;;;;;;;;;;5070831;28;20430;-62
2023/09/18 11:31:24;;;;;;;;;;;;;;;;;;5071130;28;20000;-61
2023/09/18 11:33:50;;;;;;;;;;;;;;;;;;5071069;28;20016;-63
2023/09/18 11:36:16;;;;;;;;;;;;;;;;;;5071196;28;19978;-60
2023/09/18 11:38:42;;;;;;;;;;;;;;;;;;5071635;28;20000;-64
2023/09/18 11:41:10;;;;;;;;;;;;;;;;;;5071019;28;19978;-61
2023/09/18 11:43:39;;;;;;;;;;;;;;;;;;5070869;28;19989;-60
2023/09/18 11:46:05;;;;;;;;;;;;;;;;;;5051794;28;20484;-61
2023/09/18 11:48:34;;;;;;;;;;;;;;;;;;5051490;28;19982;-61
2023/09/18 11:51:03;;;;;;;;;;;;;;;;;;5049506;28;19981;-60
2023/09/18 11:53:28;;;;;;;;;;;;;;;;;;5050869;28;20041;-58
2023/09/18 11:55:55;;;;;;;;;;;;;;;;;;5050592;28;19985;-60
2023/09/18 11:58:23;;;;;;;;;;;;;;;;;;5051187;28;19982;-60
2023/09/18 12:00:49;;;;;;;;;;;;;;;;;;5050513;28;19986;-60
2023/09/18 12:03:24;;;;;;;;;;;;;;;;;;5050944;28;20120;-60
2023/09/18 12:05:50;;;;;;;;;;;;;;;;;;5050699;28;19997;-58
2023/09/18 12:08:16;;;;;;;;;;;;;;;;;;5050980;28;20473;-59
2023/09/18 12:10:42;;;;;;;;;;;;;;;;;;5051113;28;20034;-60
2023/09/18 12:13:08;;;;;;;;;;;;;;;;;;5054162;28;19978;-59
2023/09/18 12:15:34;;;;;;;;;;;;;;;;;;5054216;28;19978;-60
2023/09/18 12:18:00;;;;;;;;;;;;;;;;;;5052859;28;19986;-60
2023/09/18 12:20:26;;;;;;;;;;;;;;;;;;5054226;28;19977;-60
2023/09/18 12:22:53;;;;;;;;;;;;;;;;;;5054639;28;19978;-59
2023/09/18 12:25:19;;;;;;;;;;;;;;;;;;5054169;28;20084;-60
2023/09/18 12:27:45;;;;;;;;;;;;;;;;;;5053825;28;20082;-60
2023/09/18 12:30:11;;;;;;;;;;;;;;;;;;5054252;28;19981;-60
2023/09/18 12:32:37;;;;;;;;;;;;;;;;;;5054058;28;19977;-60
2023/09/18 12:35:06;;;;;;;;;;;;;;;;;;5053931;28;20013;-60
2023/09/18 12:37:32;;;;;;;;;;;;;;;;;;5053878;28;20511;-59
2023/09/18 12:39:58;;;;;;;;;;;;;;;;;;5053853;28;20024;-59
2023/09/18 12:42:24;;;;;;;;;;;;;;;;;;5053761;28;19982;-59
2023/09/18 12:44:50;;;;;;;;;;;;;;;;;;5053754;28;20004;-59
2023/09/18 12:47:16;;;;;;;;;;;;;;;;;;5053776;28;19988;-58
2023/09/18 12:49:41;;;;;;;;;;;;;;;;;;5053218;28;19981;-60
2023/09/18 12:52:07;;;;;;;;;;;;;;;;;;5053340;28;20043;-58
2023/09/18 12:54:33;;;;;;;;;;;;;;;;;;5053164;28;20009;-60
2023/09/18 12:57:00;;;;;;;;;;;;;;;;;;5053745;28;19977;-60
2023/09/18 12:59:26;;;;;;;;;;;;;;;;;;5053532;28;20069;-59
2023/09/18 13:01:52;;;;;;;;;;;;;;;;;;5053455;28;20084;-59
2023/09/18 13:04:20;;;;;;;;;;;;;;;;;;5053067;28;20025;-59
2023/09/18 13:06:46;;;;;;;;;;;;;;;;;;5052954;28;20005;-59
2023/09/18 13:09:11;;;;;;;;;;;;;;;;;;5053168;28;19977;-59
2023/09/18 13:11:37;;;;;;;;;;;;;;;;;;5069348;28;19985;-59
2023/09/18 13:14:05;;;;;;;;;;;;;;;;;;5073074;28;20070;-60
2023/09/18 13:16:31;;;;;;;;;;;;;;;;;;5073107;28;19982;-60
2023/09/18 13:18:59;;;;;;;;;;;;;;;;;;5072962;28;19984;-59
2023/09/18 13:21:25;;;;;;;;;;;;;;;;;;5073108;28;19981;-59
2023/09/18 13:23:50;;;;;;;;;;;;;;;;;;5073226;28;20072;-58
2023/09/18 13:26:17;;;;;;;;;;;;;;;;;;5073139;28;19988;-59
2023/09/18 13:28:44;;;;;;;;;;;;;;;;;;5063036;28;19993;-59
2023/09/18 13:31:09;;;;;;;;;;;;;;;;;;5052845;28;20001;-59
2023/09/18 13:33:35;;;;;;;;;;;;;;;;;;5053046;28;20466;-59
2023/09/18 13:36:01;;;;;;;;;;;;;;;;;;5052974;28;19997;-58
2023/09/18 13:38:27;;;;;;;;;;;;;;;;;;5052581;28;20023;-60
2023/09/18 13:40:54;;;;;;;;;;;;;;;;;;5052787;28;19985;-60
2023/09/18 13:43:22;;;;;;;;;;;;;;;;;;5052706;28;20013;-60
2023/09/18 13:45:47;;;;;;;;;;;;;;;;;;5063755;28;19989;-60
2023/09/18 13:48:15;;;;;;;;;;;;;;;;;;5072542;28;20007;-59
2023/09/18 13:50:41;;;;;;;;;;;;;;;;;;5072532;28;19981;-59
2023/09/18 13:53:07;;;;;;;;;;;;;;;;;;5072465;28;20022;-60
2023/09/18 13:55:33;;;;;;;;;;;;;;;;;;5072893;28;19986;-59
2023/09/18 13:57:59;;;;;;;;;;;;;;;;;;5072326;28;20023;-60
2023/09/18 14:00:26;;;;;;;;;;;;;;;;;;5072213;28;19992;-60
2023/09/18 14:02:52;;;;;;;;;;;;;;;;;;5071226;28;20059;-60
2023/09/18 14:05:19;;;;;;;;;;;;;;;;;;5072262;28;20052;-60
2023/09/18 14:07:45;;;;;;;;;;;;;;;;;;5072344;28;19981;-60
2023/09/18 14:10:11;;;;;;;;;;;;;;;;;;5072286;28;19981;-59
2023/09/18 14:12:37;;;;;;;;;;;;;;;;;;5071847;28;20345;-60
2023/09/18 14:15:03;;;;;;;;;;;;;;;;;;5071850;28;20020;-61
2023/09/18 14:17:29;;;;;;;;;;;;;;;;;;5065489;28;19982;-60
2023/09/18 14:19:55;;;;;;;;;;;;;;;;;;5051857;28;20453;-59
2023/09/18 14:22:21;;;;;;;;;;;;;;;;;;5051728;28;20091;-60
2023/09/18 14:24:47;;;;;;;;;;;;;;;;;;5051713;28;19982;-61
2023/09/18 14:27:14;;;;;;;;;;;;;;;;;;5051898;28;20286;-61
2023/09/18 14:29:40;;;;;;;;;;;;;;;;;;5051871;28;19985;-59
2023/09/18 14:32:08;;;;;;;;;;;;;;;;;;5051976;28;19997;-60
2023/09/18 14:34:35;;;;;;;;;;;;;;;;;;5051378;28;20066;-60
2023/09/18 14:37:03;;;;;;;;;;;;;;;;;;5051210;28;20038;-61
2023/09/18 14:39:29;;;;;;;;;;;;;;;;;;5051713;28;19982;-61
2023/09/18 14:41:55;;;;;;;;;;;;;;;;;;5051805;28;19990;-60
2023/09/18 14:44:21;;;;;;;;;;;;;;;;;;5051710;28;20005;-61
2023/09/18 14:46:47;;;;;;;;;;;;;;;;;;5051495;28;20426;-62
2023/09/18 14:49:13;;;;;;;;;;;;;;;;;;5051616;28;20429;-61
2023/09/18 14:51:39;;;;;;;;;;;;;;;;;;5051103;28;19977;-61
2023/09/18 14:54:06;;;;;;;;;;;;;;;;;;5051473;28;20002;-60
2023/09/18 14:56:32;;;;;;;;;;;;;;;;;;5051461;28;19981;-60
2023/09/18 14:58:58;;;;;;;;;;;;;;;;;;5051473;28;19977;-62
2023/09/18 15:01:24;;;;;;;;;;;;;;;;;;5051060;28;20035;-60
2023/09/18 15:03:50;;;;;;;;;;;;;;;;;;5051309;28;20022;-61
2023/09/18 15:06:16;;;;;;;;;;;;;;;;;;5051301;28;20457;-61
2023/09/18 15:08:42;;;;;;;;;;;;;;;;;;5051679;28;20417;-63
2023/09/18 15:11:08;;;;;;;;;;;;;;;;;;5051494;28;20072;-60
2023/09/18 15:13:34;;;;;;;;;;;;;;;;;;5051316;28;20078;-61
2023/09/18 15:16:00;;;;;;;;;;;;;;;;;;5050460;28;20446;-61
2023/09/18 15:18:26;;;;;;;;;;;;;;;;;;5051439;28;20069;-61
2023/09/18 15:20:54;;;;;;;;;;;;;;;;;;5050855;28;20059;-62
2023/09/18 15:23:22;;;;;;;;;;;;;;;;;;5049897;28;20503;-61
2023/09/18 15:25:49;;;;;;;;;;;;;;;;;;5061461;28;19988;-61
2023/09/18 15:28:17;;;;;;;;;;;;;;;;;;5050723;28;20032;-62
2023/09/18 15:30:43;;;;;;;;;;;;;;;;;;5051202;28;20017;-61
2023/09/18 15:33:09;;;;;;;;;;;;;;;;;;5049974;28;20404;-60
2023/09/18 15:35:35;;;;;;;;;;;;;;;;;;5053726;28;19990;-60
2023/09/18 15:38:03;;;;;;;;;;;;;;;;;;5050611;28;20083;-60
2023/09/18 15:40:28;;;;;;;;;;;;;;;;;;5061494;28;19982;-62
2023/09/18 15:42:54;;;;;;;;;;;;;;;;;;5062949;28;19985;-60
2023/09/18 15:45:20;;;;;;;;;;;;;;;;;;5062608;28;20035;-61
2023/09/18 15:47:46;;;;;;;;;;;;;;;;;;5063277;28;19985;-62
2023/09/18 15:50:12;;;;;;;;;;;;;;;;;;5062047;28;19985;-59
2023/09/18 15:52:38;;;;;;;;;;;;;;;;;;5054725;28;20013;-61
2023/09/18 15:55:05;;;;;;;;;;;;;;;;;;5055007;28;20014;-60
2023/09/18 15:57:31;;;;;;;;;;;;;;;;;;5054644;28;19989;-60
2023/09/18 15:59:57;;;;;;;;;;;;;;;;;;5054852;28;19981;-61
2023/09/18 16:02:23;;;;;;;;;;;;;;;;;;5065697;28;20103;-60
2023/09/18 16:04:49;;;;;;;;;;;;;;;;;;5064332;28;20017;-60
2023/09/18 16:07:17;;;;;;;;;;;;;;;;;;5054488;28;19988;-61
2023/09/18 16:09:43;;;;;;;;;;;;;;;;;;5054770;28;20007;-61
2023/09/18 16:12:09;;;;;;;;;;;;;;;;;;5058230;28;20478;-63
2023/09/18 16:14:35;;;;;;;;;;;;;;;;;;5066212;28;20472;-59
2023/09/18 16:17:03;;;;;;;;;;;;;;;;;;5074125;28;20068;-61
2023/09/18 16:19:30;;;;;;;;;;;;;;;;;;5058511;28;20016;-62
2023/09/18 16:21:56;;;;;;;;;;;;;;;;;;5083460;28;20365;-61
2023/09/18 16:24:22;;;;;;;;;;;;;;;;;;5060755;28;19977;-61
2023/09/18 16:26:48;;;;;;;;;;;;;;;;;;5060173;28;19985;-61
2023/09/18 16:29:13;;;;;;;;;;;;;;;;;;5064227;28;20460;-61
2023/09/18 16:31:39;;;;;;;;;;;;;;;;;;5066519;28;19985;-62
2023/09/18 16:34:06;;;;;;;;;;;;;;;;;;5061202;28;20480;-61